Terminal Aerodrome Forecast
Issued by NWS

Home | Current Version | Previous Version | Text Only | Print | Product List | Glossary On
Versions: 1 2 3 4 5 6 7 8 9 10 11 12 13 14 15 16 17 18 19 20
000
FTUS46 KSEW 141500 AAA
TAFHQM
TAF AMD
KHQM 141503Z 1415/1512 26006KT 5SM BR OVC007
     FM142100 25006KT P6SM BKN010
     FM142300 25013KT P6SM SCT010
     FM150300 25008KT P6SM BKN007
     FM150800 23005KT 5SM BR OVC005=

USA.gov is the U.S. government's official web portal to all federal, state and local government web resources and services.